ESSL

Linköping City Airport

Linköping, Sweden
METAR ESSL 190650Z AUTO 23007KT 9999 BKN030/// M03/M06 Q1010
Observed Flight Rules
Jan-19 @ 06:50 UTC (14 minutes ago) Marginal Visual Flight Rules
Wind Visibility Clouds
230° at 7 knots 10,000+ meters
  • Broken at 3,000' AGL
Temperatures Readings
Current -3°C / 27°F
Dewpoint -6°C / 21°F
Humidity 80%
Altimeter 29.82" Hg
Pressure 1009.92 hPa
Elevation 52
METAR ESSL 190650Z AUTO 23007KT 9999 BKN030/// M03/M06 Q1010
Observed Flight Rules
Jan-19 @ 06:50 UTC
(14 minutes ago)
MVFR
Wind Visibility
230° at 7 knots 10,000+ meters
Clouds
  • Broken at 3,000' AGL
Temperature Dewpoint
-3°C / 27°F -6°C / 21°F
Humidity Altimeter Pressure
80% 29.82" Hg 1009.92 hPa